createdAt,value
2022-09-21T00:04:47.130Z,64.8
2022-09-21T00:10:23.355Z,65
2022-09-21T00:15:59.581Z,65.1
2022-09-21T00:21:36.045Z,65.2
2022-09-21T00:27:11.455Z,65.3
2022-09-21T00:32:46.085Z,65.5
2022-09-21T00:38:22.641Z,65.7
2022-09-21T00:43:57.572Z,65.9
2022-09-21T00:49:32.595Z,66
2022-09-21T00:55:07.565Z,66.1
2022-09-21T01:00:43.053Z,66.2
2022-09-21T01:06:18.772Z,66.3
2022-09-21T01:11:53.528Z,66.4
2022-09-21T01:17:28.344Z,66.6
2022-09-21T01:23:03.496Z,66.8
2022-09-21T01:28:38.400Z,67
2022-09-21T01:34:14.212Z,67.2
2022-09-21T01:39:49.226Z,67.3
2022-09-21T01:45:24.599Z,67.4
2022-09-21T01:50:59.878Z,67.5
2022-09-21T01:56:35.015Z,67.6
2022-09-21T02:02:10.389Z,67.8
2022-09-21T02:07:47.539Z,67.9
2022-09-21T02:13:22.598Z,68.1
2022-09-21T02:19:05.215Z,68.2
2022-09-21T02:24:39.940Z,68.3
2022-09-21T02:30:14.967Z,68.5
2022-09-21T02:35:50.155Z,68.6
2022-09-21T02:41:26.038Z,68.7
2022-09-21T02:47:00.887Z,68.9
2022-09-21T02:52:35.664Z,69
2022-09-21T02:58:11.532Z,69.1
2022-09-21T03:03:46.525Z,68.9
2022-09-21T03:09:21.254Z,68.8
2022-09-21T03:14:56.108Z,68.7
2022-09-21T03:20:31.038Z,68.7
2022-09-21T03:26:07.288Z,68.7
2022-09-21T03:31:42.091Z,69
2022-09-21T03:37:16.733Z,69.4
2022-09-21T03:42:51.945Z,69.7
2022-09-21T03:48:26.869Z,69.8
2022-09-21T03:54:01.879Z,69.9
2022-09-21T03:59:36.751Z,70.2
2022-09-21T04:05:11.543Z,70.4
2022-09-21T04:10:46.602Z,70.6
2022-09-21T04:16:21.891Z,70.7
2022-09-21T04:21:57.227Z,70.7
2022-09-21T04:27:32.045Z,70.7
2022-09-21T04:33:07.373Z,70.8
2022-09-21T04:38:42.326Z,71
2022-09-21T04:44:17.074Z,71.2
2022-09-21T04:49:51.841Z,71.2
2022-09-21T04:55:27.783Z,71.4
2022-09-21T05:01:03.115Z,71.3
2022-09-21T05:06:38.860Z,71.2
2022-09-21T05:12:14.698Z,71.5
2022-09-21T05:17:49.768Z,71.8
2022-09-21T05:23:29.257Z,71.9
2022-09-21T05:29:04.506Z,71.9
2022-09-21T05:34:41.695Z,71.9
2022-09-21T05:40:17.316Z,72
2022-09-21T05:45:54.597Z,72.1
2022-09-21T05:51:30.331Z,72.5
2022-09-21T05:57:06.110Z,72.9
2022-09-21T06:02:42.281Z,72.9
2022-09-21T06:08:18.853Z,72.9
2022-09-21T06:13:54.104Z,72.9
2022-09-21T06:19:30.086Z,72.8
2022-09-21T06:25:05.021Z,72.9
2022-09-21T06:30:40.211Z,72.9
2022-09-21T06:36:16.141Z,73
2022-09-21T06:41:50.871Z,73.3
2022-09-21T06:47:25.970Z,73.6
2022-09-21T06:53:01.789Z,74
2022-09-21T06:58:37.202Z,74.2
2022-09-21T07:04:12.683Z,74.5
2022-09-21T07:10:20.576Z,74.6
2022-09-21T07:15:56.236Z,74.8
2022-09-21T07:21:31.644Z,74.7
2022-09-21T07:27:08.223Z,74.9
2022-09-21T07:33:04.821Z,75.3
2022-09-21T07:38:37.469Z,75.3
2022-09-21T07:44:12.685Z,75.3
2022-09-21T07:49:47.638Z,75.2
2022-09-21T07:55:22.828Z,74.7
2022-09-21T08:00:58.351Z,74.4
2022-09-21T08:06:34.108Z,74.3
2022-09-21T08:12:09.391Z,73.9
2022-09-21T08:17:44.406Z,72
2022-09-21T08:23:19.531Z,71.6
2022-09-21T08:28:56.102Z,71
2022-09-21T08:34:52.738Z,70.5
2022-09-21T08:40:25.712Z,71.1
2022-09-21T08:46:02.366Z,70.2
2022-09-21T08:51:39.043Z,70.9
2022-09-21T08:57:16.043Z,69.3
2022-09-21T09:02:52.157Z,69.2
2022-09-21T09:08:28.108Z,68.7
2022-09-21T09:14:03.172Z,68.2
2022-09-21T09:19:38.162Z,67.2
2022-09-21T09:25:13.052Z,66.3
2022-09-21T09:30:47.916Z,66.7
2022-09-21T09:36:58.139Z,65.5
2022-09-21T09:42:35.640Z,65.7
2022-09-21T09:48:10.614Z,65.5
2022-09-21T09:53:45.848Z,62.4
2022-09-21T09:59:22.297Z,60.8
2022-09-21T10:04:57.805Z,59.9
2022-09-21T10:10:33.094Z,59.3
2022-09-21T10:16:08.601Z,61
2022-09-21T10:21:52.168Z,59.4
2022-09-21T10:27:27.394Z,60.8
2022-09-21T10:33:02.828Z,60.4
2022-09-21T10:38:37.987Z,60.6
2022-09-21T10:44:12.780Z,59.5
2022-09-21T10:49:47.620Z,59.5
2022-09-21T10:55:22.493Z,57.9
2022-09-21T11:00:57.708Z,59
2022-09-21T11:06:33.373Z,58.1
2022-09-21T11:12:08.235Z,56.2
2022-09-21T11:17:43.420Z,55.5
2022-09-21T11:23:19.981Z,55.7
2022-09-21T11:28:55.216Z,54.8
2022-09-21T11:34:30.275Z,50.3
2022-09-21T11:40:06.429Z,50.7
2022-09-21T11:45:45.179Z,52.1
2022-09-21T11:51:26.646Z,51.3
2022-09-21T11:57:03.194Z,51.9
2022-09-21T12:02:39.169Z,48
2022-09-21T12:08:17.365Z,49.1
2022-09-21T12:13:52.259Z,49.7
2022-09-21T12:19:27.570Z,50.5
2022-09-21T12:25:05.357Z,49.8
2022-09-21T12:30:41.299Z,48.3
2022-09-21T12:36:17.290Z,47.1
2022-09-21T12:41:53.165Z,47.9
2022-09-21T12:47:28.180Z,47.1
2022-09-21T12:53:03.057Z,45.7
2022-09-21T13:13:28.554Z,40.2
2022-09-21T13:19:03.131Z,40
2022-09-21T13:24:40.811Z,39.3
2022-09-21T13:30:19.505Z,40.4
2022-09-21T13:35:54.967Z,36.4
2022-09-21T13:42:03.849Z,36.7
2022-09-21T13:47:40.583Z,34.4
2022-09-21T13:53:16.740Z,30.5
2022-09-21T13:58:51.790Z,22
2022-09-21T14:04:27.077Z,18
2022-09-21T14:10:12.290Z,15.3
2022-09-21T14:15:47.627Z,15
2022-09-21T14:21:22.991Z,14.6
2022-09-21T14:27:03.153Z,13.9
2022-09-21T14:32:39.663Z,13.6
2022-09-21T14:38:15.006Z,13.5
2022-09-21T14:43:51.808Z,13.4
2022-09-21T14:49:26.939Z,12.2
2022-09-21T14:55:02.950Z,12.2
2022-09-21T15:00:38.383Z,12.8
2022-09-21T15:06:20.916Z,17.1
2022-09-21T15:11:56.481Z,20.7
2022-09-21T15:17:31.164Z,23.1
2022-09-21T15:23:41.701Z,27.4
2022-09-21T15:29:17.991Z,29.4
2022-09-21T15:34:54.328Z,27.2
2022-09-21T15:40:29.386Z,28.7
2022-09-21T15:46:06.868Z,33.7
2022-09-21T15:51:42.008Z,34.5
2022-09-21T15:57:16.680Z,37
2022-09-21T16:02:51.477Z,38.3
2022-09-21T16:08:26.501Z,39
2022-09-21T16:14:07.150Z,40.3
2022-09-21T16:19:42.404Z,40.7
2022-09-21T16:25:28.335Z,41.1
2022-09-21T16:31:10.703Z,40.8
2022-09-21T16:37:13.817Z,40.1
2022-09-21T16:42:58.463Z,40.7
2022-09-21T16:48:34.510Z,42.5
2022-09-21T16:54:10.345Z,43.3
2022-09-21T16:59:51.531Z,44.2
2022-09-21T17:05:26.401Z,44.1
2022-09-21T17:11:02.812Z,45.4
2022-09-21T17:16:38.260Z,47
2022-09-21T17:22:14.030Z,47.5
2022-09-21T17:27:57.523Z,48.6
2022-09-21T17:33:45.483Z,48.4
2022-09-21T17:39:21.304Z,48.8
2022-09-21T17:44:56.184Z,50
2022-09-21T17:50:31.083Z,50.1
2022-09-21T17:56:09.670Z,52
2022-09-21T18:01:45.789Z,51
2022-09-21T18:07:45.465Z,51.2
2022-09-21T18:13:20.257Z,52.5
2022-09-21T18:19:21.899Z,52.9
2022-09-21T18:24:56.534Z,52.9
2022-09-21T18:30:31.234Z,54.5
2022-09-21T18:36:09.767Z,54.8
2022-09-21T18:41:54.174Z,54.4
2022-09-21T18:47:29.379Z,55.1
2022-09-21T18:53:04.198Z,55.6
2022-09-21T18:58:38.923Z,56.3
2022-09-21T19:04:13.783Z,57.5
2022-09-21T19:09:48.584Z,57.7
2022-09-21T19:15:59.599Z,57.6
2022-09-21T19:21:37.385Z,58.7
2022-09-21T19:27:12.290Z,59.7
2022-09-21T19:32:47.432Z,59.8
2022-09-21T19:38:23.458Z,62.2
2022-09-21T19:43:58.439Z,62.5
2022-09-21T19:49:33.526Z,63.1
2022-09-21T19:55:08.380Z,63.6
2022-09-21T20:00:44.466Z,65
2022-09-21T20:06:20.259Z,64.9
2022-09-21T20:11:55.089Z,64.4
2022-09-21T20:17:30.160Z,65.4
2022-09-21T20:23:05.003Z,65.5
2022-09-21T20:28:39.688Z,66
2022-09-21T20:34:14.494Z,66.5
2022-09-21T20:39:50.426Z,67.3
2022-09-21T20:45:25.504Z,68.2
2022-09-21T20:51:00.652Z,68.9
2022-09-21T20:56:36.584Z,68.8
2022-09-21T21:02:11.641Z,70
2022-09-21T21:07:47.651Z,68.2
2022-09-21T21:13:22.670Z,65.5
2022-09-21T21:19:02.828Z,64.6
2022-09-21T21:24:37.655Z,64.2
2022-09-21T21:30:12.504Z,64
2022-09-21T21:35:47.670Z,63.9
2022-09-21T21:41:24.104Z,63.9
2022-09-21T21:47:41.315Z,64.2
2022-09-21T21:53:22.647Z,64.3
2022-09-21T21:59:01.593Z,64.4
2022-09-21T22:04:40.370Z,64.5
2022-09-21T22:10:17.302Z,64.6
2022-09-21T22:15:52.405Z,64.7
2022-09-21T22:21:27.375Z,64.9
2022-09-21T22:27:02.281Z,65
2022-09-21T22:32:46.937Z,65.1
2022-09-21T22:38:22.137Z,65.2
2022-09-21T22:44:06.626Z,65.3
2022-09-21T22:49:41.691Z,65.5
2022-09-21T22:55:16.590Z,65.7
2022-09-21T23:00:55.790Z,65.9
2022-09-21T23:06:31.427Z,65.9
2022-09-21T23:12:06.463Z,66
2022-09-21T23:17:41.609Z,66
2022-09-21T23:23:16.576Z,66.1
2022-09-21T23:29:00.369Z,66.2
2022-09-21T23:34:35.482Z,66.4
2022-09-21T23:40:10.815Z,66.7
2022-09-21T23:45:47.606Z,66.9
2022-09-21T23:51:34.584Z,67
2022-09-21T23:57:09.497Z,67.1
